Webcams

Webcam1&2        Webcam1 (Zeitraffer 2 Std.)        Webcam2 (Zeitraffer 2 Std.)

Webcam1 - Zeitraffer (die letzten zwei Stunden, Intervall: 10min)
cam1--20180618_192959M
cam1--20180618_193959M
cam1--20180618_194958M
cam1--20180618_195958M
cam1--20180618_200959M
cam1--20180618_201959M
cam1--20180618_202958M
cam1--20180618_203959M
cam1--20180618_204958M
cam1--20180618_205959M
cam1--20180618_210958M
cam1--20180618_211958M
cam1--20180618_212958M
01/13 
start stop bwd fwd

Webcam1 - Aktuell

Lokale Serverzeit 21:30 | 18.06.2018
Webcam-Lageplan

Flugwetter

[source: ADDS]
METAR
LOWL 190020Z AUTO 24005KT 9999 FEW050 BKN060 17/14 Q1023 =
TAF
TAF LOWL 182315Z 1900/1924 27005KT 9999 BKN080 TX25/1915Z TN15/1903Z TEMPO 1910/1917 29012KT FEW040 =